createdAt,value
2018-07-16T00:00:04.413Z,8.87
2018-07-16T00:02:31.976Z,9.03
2018-07-16T00:04:59.549Z,9.70
2018-07-16T00:07:27.147Z,8.43
2018-07-16T00:09:54.713Z,8.77
2018-07-16T00:12:22.312Z,8.40
2018-07-16T00:14:49.880Z,7.87
2018-07-16T00:17:17.452Z,10.57
2018-07-16T00:19:45.040Z,9.83
2018-07-16T00:22:12.661Z,9.50
2018-07-16T00:24:40.238Z,9.07
2018-07-16T00:27:07.806Z,8.73
2018-07-16T00:29:36.181Z,8.70
2018-07-16T00:32:03.742Z,8.47
2018-07-16T00:34:31.306Z,8.37
2018-07-16T00:36:59.674Z,8.90
2018-07-16T00:39:27.236Z,8.27
2018-07-16T00:41:54.817Z,9.70
2018-07-16T00:44:23.247Z,8.60
2018-07-16T00:46:50.758Z,8.40
2018-07-16T00:49:19.089Z,8.47
2018-07-16T00:51:46.688Z,8.57
2018-07-16T00:54:14.246Z,8.30
2018-07-16T00:56:41.814Z,7.90
2018-07-16T00:59:10.219Z,7.90
2018-07-16T01:01:37.755Z,8.70
2018-07-16T01:04:05.325Z,8.63
2018-07-16T01:06:32.949Z,8.30
2018-07-16T01:09:00.532Z,8.60
2018-07-16T01:11:28.110Z,10.02
2018-07-16T01:13:56.489Z,8.93
2018-07-16T01:16:24.822Z,8.60
2018-07-16T01:18:52.386Z,7.93
2018-07-16T01:21:19.988Z,7.90
2018-07-16T01:23:48.321Z,7.97
2018-07-16T01:26:15.885Z,8.10
2018-07-16T01:28:43.505Z,7.40
2018-07-16T01:31:11.075Z,8.67
2018-07-16T01:33:38.645Z,7.83
2018-07-16T01:36:06.244Z,7.40
2018-07-16T01:38:33.808Z,8.03
2018-07-16T01:41:01.373Z,7.70
2018-07-16T01:43:28.971Z,8.30
2018-07-16T01:45:56.535Z,8.80
2018-07-16T01:48:24.109Z,8.90
2018-07-16T01:50:51.737Z,8.33
2018-07-16T01:53:20.068Z,8.30
2018-07-16T01:55:47.639Z,8.50
2018-07-16T01:58:15.245Z,8.67
2018-07-16T02:00:43.582Z,8.90
2018-07-16T02:03:11.144Z,8.70
2018-07-16T02:05:38.754Z,9.57
2018-07-16T02:08:07.090Z,9.83
2018-07-16T02:10:34.672Z,9.07
2018-07-16T02:13:02.304Z,10.68
2018-07-16T02:15:29.877Z,11.20
2018-07-16T02:17:57.450Z,11.30
2018-07-16T02:20:25.054Z,9.97
2018-07-16T02:22:52.626Z,9.30
2018-07-16T02:25:20.202Z,9.30
2018-07-16T02:27:47.809Z,8.87
2018-07-16T02:30:15.388Z,9.07
2018-07-16T02:32:43.726Z,9.23
2018-07-16T02:35:11.350Z,8.97
2018-07-16T02:37:38.918Z,9.13
2018-07-16T02:40:06.496Z,9.23
2018-07-16T02:42:34.095Z,9.57
2018-07-16T02:45:01.662Z,9.67
2018-07-16T02:47:29.242Z,9.23
2018-07-16T02:49:56.842Z,9.40
2018-07-16T02:52:24.451Z,9.47
2018-07-16T02:54:51.982Z,8.87
2018-07-16T02:57:19.603Z,9.03
2018-07-16T02:59:47.174Z,10.80
2018-07-16T03:02:14.737Z,9.33
2018-07-16T03:04:42.337Z,9.73
2018-07-16T03:07:09.913Z,9.57
2018-07-16T03:09:37.486Z,10.40
2018-07-16T03:12:05.863Z,10.03
2018-07-16T03:14:34.198Z,10.07
2018-07-16T03:17:01.766Z,9.20
2018-07-16T03:19:29.377Z,9.83
2018-07-16T03:21:56.951Z,9.60
2018-07-16T03:24:24.526Z,11.23
2018-07-16T03:26:52.134Z,10.37
2018-07-16T03:29:19.714Z,11.07
2018-07-16T03:31:47.573Z,12.80
2018-07-16T03:34:15.177Z,11.93
2018-07-16T03:36:42.748Z,11.80
2018-07-16T03:39:10.317Z,11.57
2018-07-16T03:41:37.942Z,11.83
2018-07-16T03:44:05.510Z,11.03
2018-07-16T03:46:33.080Z,10.40
2018-07-16T03:49:00.689Z,10.83
2018-07-16T03:51:28.269Z,10.50
2018-07-16T03:53:56.617Z,10.37
2018-07-16T03:56:24.222Z,10.93
2018-07-16T03:58:52.566Z,10.83
2018-07-16T04:01:20.136Z,9.77
2018-07-16T04:03:47.745Z,10.40
2018-07-16T04:06:15.326Z,10.13
2018-07-16T04:08:42.907Z,9.80
2018-07-16T04:11:10.522Z,10.30
2018-07-16T04:13:38.094Z,10.30
2018-07-16T04:16:05.666Z,9.70
2018-07-16T04:18:33.327Z,10.53
2018-07-16T04:21:01.627Z,10.80
2018-07-16T04:23:29.197Z,10.20
2018-07-16T04:25:57.488Z,10.07
2018-07-16T04:28:25.062Z,10.93
2018-07-16T04:30:52.645Z,9.70
2018-07-16T04:33:21.003Z,10.30
2018-07-16T04:35:48.569Z,10.20
2018-07-16T04:38:16.904Z,10.03
2018-07-16T04:40:44.519Z,10.20
2018-07-16T04:43:12.853Z,10.37
2018-07-16T04:45:40.433Z,10.80
2018-07-16T04:48:08.597Z,10.13
2018-07-16T04:50:36.170Z,12.30
2018-07-16T04:53:03.752Z,10.57
2018-07-16T04:55:32.125Z,12.82
2018-07-16T04:57:59.695Z,11.13
2018-07-16T05:00:28.060Z,11.13
2018-07-16T05:02:55.627Z,11.43
2018-07-16T05:05:23.197Z,11.33
2018-07-16T05:07:51.534Z,10.93
2018-07-16T05:10:19.166Z,10.87
2018-07-16T05:12:46.741Z,9.90
2018-07-16T05:15:14.308Z,9.77
2018-07-16T05:17:41.916Z,11.03
2018-07-16T05:20:09.493Z,10.77
2018-07-16T05:22:37.837Z,11.17
2018-07-16T05:25:05.448Z,11.83
2018-07-16T05:27:33.024Z,12.20
2018-07-16T05:30:00.619Z,13.33
2018-07-16T05:32:28.419Z,13.53
2018-07-16T05:34:55.800Z,13.73
2018-07-16T05:37:23.374Z,14.23
2018-07-16T05:39:50.982Z,14.30
2018-07-16T05:42:18.556Z,14.93
2018-07-16T05:44:46.899Z,13.40
2018-07-16T05:47:14.884Z,13.90
2018-07-16T05:49:42.455Z,14.87
2018-07-16T05:52:10.028Z,13.97
2018-07-16T05:54:38.427Z,13.93
2018-07-16T05:57:05.995Z,12.43
2018-07-16T05:59:33.566Z,12.50
2018-07-16T06:02:01.228Z,12.97
2018-07-16T06:04:28.795Z,12.90
2018-07-16T06:06:56.366Z,13.33
2018-07-16T06:09:24.020Z,12.97
2018-07-16T06:11:51.590Z,13.10
2018-07-16T06:14:19.158Z,12.80
2018-07-16T06:16:46.835Z,12.20
2018-07-16T06:19:14.349Z,13.50
2018-07-16T06:21:41.923Z,13.10
2018-07-16T06:24:09.642Z,13.13
2018-07-16T06:26:37.156Z,14.47
2018-07-16T06:29:04.733Z,14.40
2018-07-16T06:31:33.018Z,14.13
2018-07-16T06:34:00.595Z,13.57
2018-07-16T06:36:28.180Z,14.10
2018-07-16T06:38:57.144Z,15.27
2018-07-16T06:41:25.014Z,13.83
2018-07-16T06:43:52.284Z,14.43
2018-07-16T06:46:19.900Z,14.17
2018-07-16T06:48:47.474Z,14.87
2018-07-16T06:51:15.051Z,12.80
2018-07-16T06:53:43.050Z,13.83
2018-07-16T06:56:11.395Z,13.70
2018-07-16T06:58:38.979Z,13.33
2018-07-16T07:01:06.602Z,14.80
2018-07-16T07:03:34.181Z,14.07
2018-07-16T07:06:01.756Z,13.83
2018-07-16T07:08:29.754Z,14.90
2018-07-16T07:10:57.322Z,14.05
2018-07-16T07:13:24.901Z,12.40
2018-07-16T07:15:52.527Z,11.90
2018-07-16T07:18:20.864Z,12.83
2018-07-16T07:20:48.444Z,11.87
2018-07-16T07:23:16.060Z,12.40
2018-07-16T07:25:43.645Z,13.88
2018-07-16T07:28:11.228Z,12.73
2018-07-16T07:30:39.408Z,12.23
2018-07-16T07:33:06.984Z,13.23
2018-07-16T07:35:34.668Z,12.23
2018-07-16T07:38:02.209Z,11.60
2018-07-16T07:40:29.780Z,11.90
2018-07-16T07:42:58.119Z,11.90
2018-07-16T07:45:25.737Z,12.37
2018-07-16T07:47:53.317Z,12.00
2018-07-16T07:50:20.887Z,11.60
2018-07-16T07:52:48.551Z,11.03
2018-07-16T07:55:16.446Z,11.33
2018-07-16T07:57:43.695Z,10.33
2018-07-16T08:00:11.322Z,10.80
2018-07-16T08:02:38.897Z,10.13
2018-07-16T08:05:06.471Z,9.63
2018-07-16T08:07:34.109Z,10.33
2018-07-16T08:10:01.679Z,9.10
2018-07-16T08:12:29.253Z,10.27
2018-07-16T08:14:56.874Z,8.73
2018-07-16T08:17:25.209Z,9.07
2018-07-16T08:19:52.775Z,8.80
2018-07-16T08:22:20.386Z,9.70
2018-07-16T08:24:47.954Z,9.68
2018-07-16T08:27:15.520Z,8.97
2018-07-16T08:29:43.130Z,8.20
2018-07-16T08:32:10.692Z,8.80
2018-07-16T08:34:38.253Z,7.13
2018-07-16T08:37:05.865Z,6.47
2018-07-16T08:39:33.426Z,6.10
2018-07-16T08:42:01.016Z,5.50
2018-07-16T08:44:29.192Z,5.10
2018-07-16T08:46:56.750Z,4.73
2018-07-16T08:49:24.314Z,4.87
2018-07-16T08:51:51.926Z,4.40
2018-07-16T08:54:20.260Z,3.77
2018-07-16T08:56:47.823Z,4.00
2018-07-16T08:59:15.451Z,4.30
2018-07-16T09:01:42.996Z,4.03
2018-07-16T09:04:10.560Z,4.83
2018-07-16T09:06:38.193Z,5.20
2018-07-16T09:09:05.756Z,4.00
2018-07-16T09:11:34.090Z,4.50
2018-07-16T09:14:01.708Z,4.60
2018-07-16T09:16:30.031Z,4.20
2018-07-16T09:18:57.588Z,4.20
2018-07-16T09:21:26.386Z,4.80
2018-07-16T09:23:53.949Z,3.87
2018-07-16T09:26:21.508Z,3.47
2018-07-16T09:28:49.901Z,2.80
2018-07-16T09:31:17.481Z,2.70
2018-07-16T09:33:45.043Z,2.93
2018-07-16T09:36:12.669Z,12.03
2018-07-16T09:38:40.236Z,2.63
2018-07-16T09:41:07.799Z,2.33
2018-07-16T09:43:35.437Z,2.30
2018-07-16T09:46:02.995Z,2.40
2018-07-16T09:48:30.550Z,2.67
2018-07-16T09:50:59.170Z,2.57
2018-07-16T09:53:26.734Z,2.30
2018-07-16T09:55:54.288Z,2.40
2018-07-16T09:58:22.372Z,3.27
2018-07-16T10:00:49.927Z,2.20
2018-07-16T10:03:17.489Z,2.90
2018-07-16T10:05:45.469Z,1.90
2018-07-16T10:08:13.027Z,2.23
2018-07-16T10:10:40.589Z,2.00
2018-07-16T10:13:08.193Z,1.93
2018-07-16T10:15:36.524Z,1.90
2018-07-16T10:18:04.086Z,1.90
2018-07-16T10:20:31.748Z,2.05
2018-07-16T10:22:59.257Z,2.00
2018-07-16T10:25:26.812Z,2.10
2018-07-16T10:27:55.201Z,1.97
2018-07-16T10:30:22.766Z,2.37
2018-07-16T10:32:51.092Z,2.30
2018-07-16T10:35:18.700Z,1.63
2018-07-16T10:37:47.034Z,1.87
2018-07-16T10:40:14.591Z,2.03
2018-07-16T10:42:42.194Z,1.90
2018-07-16T10:45:09.761Z,2.10
2018-07-16T10:47:37.323Z,1.97
2018-07-16T10:50:05.699Z,1.93
2018-07-16T10:52:34.027Z,2.10
2018-07-16T10:55:01.592Z,2.63
2018-07-16T10:57:29.205Z,2.10
2018-07-16T10:59:57.531Z,2.63
2018-07-16T11:02:25.088Z,2.33
2018-07-16T11:04:52.693Z,2.80
2018-07-16T11:07:21.018Z,2.50
2018-07-16T11:09:48.578Z,2.20
2018-07-16T11:12:16.188Z,2.20
2018-07-16T11:14:43.746Z,2.10
2018-07-16T11:17:11.308Z,2.80
2018-07-16T11:19:39.384Z,2.17
2018-07-16T11:22:06.942Z,2.50
2018-07-16T11:24:34.536Z,2.33
2018-07-16T11:27:02.546Z,2.33
2018-07-16T11:29:30.108Z,2.47
2018-07-16T11:31:57.670Z,1.80
2018-07-16T11:34:25.270Z,2.13
2018-07-16T11:36:53.623Z,2.37
2018-07-16T11:39:21.174Z,2.23
2018-07-16T11:41:49.222Z,2.20
2018-07-16T11:44:16.773Z,2.30
2018-07-16T11:46:44.338Z,2.50
2018-07-16T11:49:12.325Z,2.70
2018-07-16T11:51:39.844Z,2.50
2018-07-16T11:54:08.186Z,2.40
2018-07-16T11:56:35.789Z,2.60
2018-07-16T11:59:03.414Z,2.70
2018-07-16T12:01:30.902Z,2.77
2018-07-16T12:04:00.672Z,2.90
2018-07-16T12:06:28.239Z,3.00
2018-07-16T12:08:55.793Z,3.17
2018-07-16T12:11:24.267Z,3.00
2018-07-16T12:13:51.838Z,2.77
2018-07-16T12:16:19.396Z,3.10
2018-07-16T12:18:47.024Z,2.67
2018-07-16T12:21:14.580Z,3.13
2018-07-16T12:23:42.149Z,2.63
2018-07-16T12:26:10.264Z,2.80
2018-07-16T12:28:37.816Z,2.70
2018-07-16T12:31:05.380Z,2.65
2018-07-16T12:33:32.997Z,2.90
2018-07-16T12:36:00.566Z,2.83
2018-07-16T12:38:28.124Z,2.60
2018-07-16T12:40:56.339Z,2.43
2018-07-16T12:43:23.896Z,2.60
2018-07-16T12:45:51.454Z,2.63
2018-07-16T12:48:19.112Z,2.40
2018-07-16T12:50:46.672Z,2.40
2018-07-16T12:53:14.221Z,2.53
2018-07-16T12:55:41.827Z,2.33
2018-07-16T12:58:09.387Z,2.63
2018-07-16T13:00:36.983Z,2.70
2018-07-16T13:03:05.102Z,2.70
2018-07-16T13:05:32.898Z,2.70
2018-07-16T13:08:00.458Z,2.33
2018-07-16T13:10:28.864Z,2.70
2018-07-16T13:12:57.189Z,2.33
2018-07-16T13:15:24.744Z,2.20
2018-07-16T13:17:53.233Z,2.30
2018-07-16T13:20:20.796Z,2.30
2018-07-16T13:22:48.383Z,2.37
2018-07-16T13:25:15.964Z,2.50
2018-07-16T13:27:44.289Z,2.70
2018-07-16T13:30:11.854Z,2.20
2018-07-16T13:32:39.453Z,2.70
2018-07-16T13:35:07.770Z,3.10
2018-07-16T13:37:35.334Z,2.50
2018-07-16T13:40:03.432Z,2.47
2018-07-16T13:42:30.991Z,2.33
2018-07-16T13:44:58.548Z,2.70
2018-07-16T13:47:26.150Z,2.20
2018-07-16T13:49:54.472Z,2.40
2018-07-16T13:52:22.026Z,2.40
2018-07-16T13:54:50.315Z,2.40
2018-07-16T13:57:17.872Z,2.40
2018-07-16T13:59:45.430Z,2.40
2018-07-16T14:02:13.046Z,2.90
2018-07-16T14:04:40.588Z,2.40
2018-07-16T14:07:08.145Z,2.30
2018-07-16T14:09:35.743Z,2.27
2018-07-16T14:12:04.073Z,2.27
2018-07-16T14:14:31.633Z,2.30
2018-07-16T14:16:59.255Z,1.87
2018-07-16T14:19:27.594Z,1.93
2018-07-16T14:21:55.145Z,2.10
2018-07-16T14:24:22.754Z,2.30
2018-07-16T14:26:51.086Z,2.43
2018-07-16T14:29:18.643Z,2.70
2018-07-16T14:31:46.245Z,2.30
2018-07-16T14:34:13.795Z,2.40
2018-07-16T14:36:41.354Z,2.30
2018-07-16T14:39:08.973Z,2.30
2018-07-16T14:41:36.522Z,2.37
2018-07-16T14:44:04.081Z,2.23
2018-07-16T14:46:31.688Z,2.23
2018-07-16T14:48:59.243Z,1.87
2018-07-16T14:51:26.811Z,2.10
2018-07-16T14:53:54.451Z,1.83
2018-07-16T14:56:21.967Z,2.00
2018-07-16T14:58:50.290Z,2.03
2018-07-16T15:01:17.896Z,2.00
2018-07-16T15:03:46.225Z,1.90
2018-07-16T15:06:13.785Z,2.10
2018-07-16T15:08:41.392Z,2.10
2018-07-16T15:11:08.948Z,2.10
2018-07-16T15:13:36.503Z,2.03
2018-07-16T15:16:04.142Z,1.87
2018-07-16T15:18:31.692Z,1.50
2018-07-16T15:20:59.454Z,1.90
2018-07-16T15:23:27.444Z,1.80
2018-07-16T15:25:54.994Z,1.90
2018-07-16T15:28:22.555Z,1.63
2018-07-16T15:30:51.042Z,1.60
2018-07-16T15:33:18.601Z,1.70
2018-07-16T15:35:46.190Z,1.73
2018-07-16T15:38:13.759Z,1.70
2018-07-16T15:40:41.320Z,1.67
2018-07-16T15:43:08.878Z,1.60
2018-07-16T15:45:37.250Z,1.87
2018-07-16T15:48:04.819Z,1.70
2018-07-16T15:50:32.375Z,1.50
2018-07-16T15:53:00.486Z,1.70
2018-07-16T15:55:28.047Z,1.40
2018-07-16T15:57:55.602Z,1.50
2018-07-16T16:00:24.023Z,1.23
2018-07-16T16:02:51.656Z,1.40
2018-07-16T16:05:19.142Z,1.40
2018-07-16T16:07:46.739Z,1.50
2018-07-16T16:10:14.293Z,1.30
2018-07-16T16:12:41.853Z,1.13
2018-07-16T16:15:09.461Z,1.50
2018-07-16T16:17:37.028Z,1.55
2018-07-16T16:20:04.584Z,1.50
2018-07-16T16:22:32.195Z,1.53
2018-07-16T16:24:59.755Z,0.90
2018-07-16T16:27:27.317Z,1.20
2018-07-16T16:29:54.914Z,1.30
2018-07-16T16:32:22.470Z,1.30
2018-07-16T16:34:50.795Z,1.27
2018-07-16T16:37:18.411Z,1.40
2018-07-16T16:39:46.736Z,1.07
2018-07-16T16:42:14.301Z,1.20
2018-07-16T16:44:41.974Z,1.40
2018-07-16T16:47:09.497Z,1.17
2018-07-16T16:49:37.053Z,1.40
2018-07-16T16:52:04.658Z,1.30
2018-07-16T16:54:32.212Z,1.30
2018-07-16T16:56:59.767Z,1.30
2018-07-16T16:59:27.375Z,1.37
2018-07-16T17:01:54.930Z,1.10
2018-07-16T17:04:23.254Z,1.43
2018-07-16T17:06:51.101Z,1.10
2018-07-16T17:09:18.665Z,1.30
2018-07-16T17:11:46.237Z,0.97
2018-07-16T17:14:15.152Z,1.13
2018-07-16T17:16:42.717Z,1.23
2018-07-16T17:19:10.269Z,1.30
2018-07-16T17:21:37.873Z,1.43
2018-07-16T17:24:05.437Z,1.40
2018-07-16T17:26:34.001Z,1.50
2018-07-16T17:29:02.154Z,1.30
2018-07-16T17:31:29.715Z,1.30
2018-07-16T17:33:57.268Z,1.30
2018-07-16T17:36:24.867Z,1.40
2018-07-16T17:38:52.454Z,1.30
2018-07-16T17:41:20.010Z,1.53
2018-07-16T17:43:48.133Z,2.63
2018-07-16T17:46:15.697Z,1.30
2018-07-16T17:48:43.247Z,1.60
2018-07-16T17:51:10.897Z,1.30
2018-07-16T17:53:38.518Z,1.30
2018-07-16T17:56:06.007Z,1.30
2018-07-16T17:58:33.623Z,1.40
2018-07-16T18:01:01.171Z,1.40
2018-07-16T18:03:28.732Z,1.23
2018-07-16T18:05:57.207Z,1.40
2018-07-16T18:08:24.764Z,1.33
2018-07-16T18:10:52.322Z,1.53
2018-07-16T18:13:19.963Z,2.60
2018-07-16T18:15:47.494Z,1.23
2018-07-16T18:18:15.053Z,1.27
2018-07-16T18:20:42.658Z,1.40
2018-07-16T18:23:10.212Z,1.30
2018-07-16T18:25:37.773Z,1.30
2018-07-16T18:28:06.389Z,1.73
2018-07-16T18:30:33.969Z,1.50
2018-07-16T18:33:01.528Z,1.70
2018-07-16T18:35:29.226Z,1.50
2018-07-16T18:37:56.712Z,1.57
2018-07-16T18:40:24.276Z,1.67
2018-07-16T18:42:52.682Z,1.57
2018-07-16T18:45:20.241Z,1.50
2018-07-16T18:47:47.812Z,1.60
2018-07-16T18:50:15.429Z,1.53
2018-07-16T18:52:42.988Z,1.62
2018-07-16T18:55:10.550Z,1.37
2018-07-16T18:57:38.547Z,1.60
2018-07-16T19:00:06.105Z,1.63
2018-07-16T19:02:33.659Z,1.50
2018-07-16T19:05:01.288Z,1.60
2018-07-16T19:07:28.843Z,1.90
2018-07-16T19:09:57.172Z,1.90
2018-07-16T19:12:24.800Z,1.87
2018-07-16T19:14:52.351Z,2.30
2018-07-16T19:17:19.902Z,2.20
2018-07-16T19:19:47.503Z,1.90
2018-07-16T19:22:15.050Z,1.90
2018-07-16T19:24:42.611Z,1.80
2018-07-16T19:27:10.212Z,1.87
2018-07-16T19:29:37.776Z,2.33
2018-07-16T19:32:05.329Z,2.27
2018-07-16T19:34:32.931Z,2.20
2018-07-16T19:37:00.500Z,1.97
2018-07-16T19:39:28.056Z,1.90
2018-07-16T19:41:56.885Z,1.90
2018-07-16T19:44:24.437Z,2.10
2018-07-16T19:46:51.986Z,2.10
2018-07-16T19:49:20.390Z,2.20
2018-07-16T19:51:47.946Z,2.17
2018-07-16T19:54:15.496Z,2.30
2018-07-16T19:56:43.103Z,2.00
2018-07-16T19:59:10.650Z,2.13
2018-07-16T20:01:38.205Z,2.33
2018-07-16T20:04:05.817Z,2.00
2018-07-16T20:06:33.372Z,1.97
2018-07-16T20:09:01.688Z,2.50
2018-07-16T20:11:29.315Z,2.87
2018-07-16T20:13:57.656Z,3.67
2018-07-16T20:16:25.213Z,5.17
2018-07-16T20:18:52.813Z,3.53
2018-07-16T20:21:20.411Z,3.17
2018-07-16T20:23:47.919Z,2.30
2018-07-16T20:26:15.516Z,3.10
2018-07-16T20:28:43.075Z,2.53
2018-07-16T20:31:10.624Z,2.90
2018-07-16T20:33:39.379Z,2.37
2018-07-16T20:36:06.932Z,2.60
2018-07-16T20:38:34.488Z,3.00
2018-07-16T20:41:02.116Z,3.57
2018-07-16T20:43:29.668Z,3.00
2018-07-16T20:45:57.218Z,2.80
2018-07-16T20:48:24.819Z,2.80
2018-07-16T20:50:52.391Z,2.37
2018-07-16T20:53:19.933Z,2.20
2018-07-16T20:55:47.535Z,2.83
2018-07-16T20:58:15.083Z,2.53
2018-07-16T21:00:42.645Z,2.95
2018-07-16T21:03:10.245Z,3.17
2018-07-16T21:05:38.572Z,3.30
2018-07-16T21:08:06.130Z,3.27
2018-07-16T21:10:34.112Z,3.20
2018-07-16T21:13:01.668Z,2.77
2018-07-16T21:15:29.217Z,2.90
2018-07-16T21:17:56.833Z,2.73
2018-07-16T21:20:24.383Z,3.20
2018-07-16T21:22:51.937Z,2.60
2018-07-16T21:25:19.522Z,2.80
2018-07-16T21:27:47.842Z,2.70
2018-07-16T21:30:15.449Z,2.57
2018-07-16T21:32:43.484Z,2.40
2018-07-16T21:35:11.034Z,2.67
2018-07-16T21:37:38.586Z,2.70
2018-07-16T21:40:06.172Z,2.70
2018-07-16T21:42:33.728Z,2.80
2018-07-16T21:45:01.276Z,3.17
2018-07-16T21:47:28.861Z,3.17
2018-07-16T21:49:56.414Z,2.60
2018-07-16T21:52:23.968Z,2.90
2018-07-16T21:54:51.577Z,2.40
2018-07-16T21:57:19.897Z,2.53
2018-07-16T21:59:47.480Z,2.40
2018-07-16T22:02:15.029Z,3.00
2018-07-16T22:04:42.577Z,2.53
2018-07-16T22:07:10.128Z,2.90
2018-07-16T22:09:37.720Z,2.63
2018-07-16T22:12:05.270Z,2.93
2018-07-16T22:14:32.820Z,2.97
2018-07-16T22:17:00.803Z,2.50
2018-07-16T22:19:28.372Z,1.90
2018-07-16T22:21:55.923Z,2.17
2018-07-16T22:24:23.513Z,2.20
2018-07-16T22:26:51.078Z,2.50
2018-07-16T22:29:18.628Z,2.30
2018-07-16T22:31:46.214Z,2.40
2018-07-16T22:34:13.772Z,2.97
2018-07-16T22:36:41.330Z,2.80
2018-07-16T22:39:08.926Z,2.20
2018-07-16T22:41:36.481Z,2.33
2018-07-16T22:44:04.034Z,2.60
2018-07-16T22:46:32.402Z,2.47
2018-07-16T22:48:59.944Z,1.90
2018-07-16T22:51:27.492Z,2.47
2018-07-16T22:53:55.084Z,2.37
2018-07-16T22:56:23.411Z,2.10
2018-07-16T22:58:50.971Z,2.17
2018-07-16T23:01:18.564Z,2.30
2018-07-16T23:03:46.117Z,2.47
2018-07-16T23:06:13.673Z,2.53
2018-07-16T23:08:41.263Z,2.57
2018-07-16T23:11:08.811Z,2.83
2018-07-16T23:13:36.367Z,2.57
2018-07-16T23:16:03.957Z,2.23
2018-07-16T23:18:32.284Z,2.17
2018-07-16T23:20:59.851Z,2.50
2018-07-16T23:23:27.465Z,2.20
2018-07-16T23:25:55.785Z,2.17
2018-07-16T23:28:23.339Z,2.17
2018-07-16T23:30:50.925Z,2.27
2018-07-16T23:33:18.483Z,2.30
2018-07-16T23:35:46.033Z,2.40
2018-07-16T23:38:13.624Z,2.47
2018-07-16T23:40:41.186Z,2.37
2018-07-16T23:43:08.767Z,2.20
2018-07-16T23:45:37.140Z,1.80
2018-07-16T23:48:05.457Z,2.43
2018-07-16T23:50:33.013Z,2.50
2018-07-16T23:53:00.604Z,2.30
2018-07-16T23:55:28.183Z,2.20
2018-07-16T23:57:55.738Z,2.67
